sensor_id;sensor_type;location;lat;lon;timestamp;temperature;humidity
20081;DHT22;10200;49.232;9.222;2022-09-09T00:01:30;17.00;99.90
20081;DHT22;10200;49.232;9.222;2022-09-09T00:09:28;17.00;99.90
20081;DHT22;10200;49.232;9.222;2022-09-09T00:12:10;17.00;99.90
20081;DHT22;10200;49.232;9.222;2022-09-09T00:14:59;17.00;99.90
20081;DHT22;10200;49.232;9.222;2022-09-09T00:20:21;17.00;99.90
20081;DHT22;10200;49.232;9.222;2022-09-09T00:31:34;17.00;99.90
20081;DHT22;10200;49.232;9.222;2022-09-09T00:36:40;16.90;99.90
20081;DHT22;10200;49.232;9.222;2022-09-09T00:39:13;17.00;99.90
20081;DHT22;10200;49.232;9.222;2022-09-09T00:42:17;17.00;99.90
20081;DHT22;10200;49.232;9.222;2022-09-09T00:47:53;17.00;99.90
20081;DHT22;10200;49.232;9.222;2022-09-09T00:55:54;17.10;99.90
20081;DHT22;10200;49.232;9.222;2022-09-09T00:58:22;17.10;99.90
20081;DHT22;10200;49.232;9.222;2022-09-09T01:01:04;17.10;99.90
20081;DHT22;10200;49.232;9.222;2022-09-09T01:03:36;17.10;99.90
20081;DHT22;10200;49.232;9.222;2022-09-09T01:06:20;17.10;99.90
20081;DHT22;10200;49.232;9.222;2022-09-09T01:09:20;17.10;99.90
20081;DHT22;10200;49.232;9.222;2022-09-09T01:11:55;17.10;99.90
20081;DHT22;10200;49.232;9.222;2022-09-09T01:17:19;17.00;99.90
20081;DHT22;10200;49.232;9.222;2022-09-09T01:28:27;16.90;99.90
20081;DHT22;10200;49.232;9.222;2022-09-09T01:30:54;16.90;99.90
20081;DHT22;10200;49.232;9.222;2022-09-09T01:33:20;16.90;99.90
20081;DHT22;10200;49.232;9.222;2022-09-09T01:38:17;16.90;99.90
20081;DHT22;10200;49.232;9.222;2022-09-09T01:40:43;16.90;99.90
20081;DHT22;10200;49.232;9.222;2022-09-09T01:43:09;16.90;99.90
20081;DHT22;10200;49.232;9.222;2022-09-09T01:45:35;16.90;99.90
20081;DHT22;10200;49.232;9.222;2022-09-09T01:48:01;16.90;99.90
20081;DHT22;10200;49.232;9.222;2022-09-09T01:50:28;16.90;99.90
20081;DHT22;10200;49.232;9.222;2022-09-09T01:52:58;16.90;99.90
20081;DHT22;10200;49.232;9.222;2022-09-09T01:55:30;16.90;99.90
20081;DHT22;10200;49.232;9.222;2022-09-09T02:00:38;17.00;99.90
20081;DHT22;10200;49.232;9.222;2022-09-09T02:03:24;17.00;99.90
20081;DHT22;10200;49.232;9.222;2022-09-09T02:06:15;17.00;99.90
20081;DHT22;10200;49.232;9.222;2022-09-09T02:08:49;17.10;99.90
20081;DHT22;10200;49.232;9.222;2022-09-09T02:11:17;17.00;99.90
20081;DHT22;10200;49.232;9.222;2022-09-09T02:13:46;17.10;99.90
20081;DHT22;10200;49.232;9.222;2022-09-09T02:16:22;17.00;99.90
20081;DHT22;10200;49.232;9.222;2022-09-09T02:21:18;17.00;99.90
20081;DHT22;10200;49.232;9.222;2022-09-09T02:23:45;17.00;99.90
20081;DHT22;10200;49.232;9.222;2022-09-09T02:26:13;16.90;99.90
20081;DHT22;10200;49.232;9.222;2022-09-09T02:28:46;17.00;99.90
20081;DHT22;10200;49.232;9.222;2022-09-09T02:31:12;17.00;99.90
20081;DHT22;10200;49.232;9.222;2022-09-09T02:33:43;16.90;99.90
20081;DHT22;10200;49.232;9.222;2022-09-09T02:36:11;17.00;99.90
20081;DHT22;10200;49.232;9.222;2022-09-09T02:38:47;16.90;99.90
20081;DHT22;10200;49.232;9.222;2022-09-09T02:41:26;16.90;99.90
20081;DHT22;10200;49.232;9.222;2022-09-09T02:43:53;16.90;99.90
20081;DHT22;10200;49.232;9.222;2022-09-09T02:46:32;16.90;99.90
20081;DHT22;10200;49.232;9.222;2022-09-09T02:49:09;16.90;99.90
20081;DHT22;10200;49.232;9.222;2022-09-09T02:51:51;17.00;99.90
20081;DHT22;10200;49.232;9.222;2022-09-09T02:54:30;17.00;99.90
20081;DHT22;10200;49.232;9.222;2022-09-09T02:57:07;17.10;99.90
20081;DHT22;10200;49.232;9.222;2022-09-09T02:59:34;17.00;99.90
20081;DHT22;10200;49.232;9.222;2022-09-09T03:01:59;17.00;99.90
20081;DHT22;10200;49.232;9.222;2022-09-09T03:04:25;17.00;99.90
20081;DHT22;10200;49.232;9.222;2022-09-09T03:06:51;16.90;99.90
20081;DHT22;10200;49.232;9.222;2022-09-09T03:09:16;16.90;99.90
20081;DHT22;10200;49.232;9.222;2022-09-09T03:11:42;16.90;99.90
20081;DHT22;10200;49.232;9.222;2022-09-09T03:14:08;16.90;99.90
20081;DHT22;10200;49.232;9.222;2022-09-09T03:16:33;16.80;99.90
20081;DHT22;10200;49.232;9.222;2022-09-09T03:19:00;16.90;99.90
20081;DHT22;10200;49.232;9.222;2022-09-09T03:21:26;16.90;99.90
20081;DHT22;10200;49.232;9.222;2022-09-09T03:23:52;16.90;99.90
20081;DHT22;10200;49.232;9.222;2022-09-09T03:26:17;16.90;99.90
20081;DHT22;10200;49.232;9.222;2022-09-09T03:28:43;16.80;99.90
20081;DHT22;10200;49.232;9.222;2022-09-09T03:31:10;16.80;99.90
20081;DHT22;10200;49.232;9.222;2022-09-09T03:33:37;16.80;99.90
20081;DHT22;10200;49.232;9.222;2022-09-09T03:36:03;16.70;99.90
20081;DHT22;10200;49.232;9.222;2022-09-09T03:38:28;16.80;99.90
20081;DHT22;10200;49.232;9.222;2022-09-09T03:40:56;16.80;99.90
20081;DHT22;10200;49.232;9.222;2022-09-09T03:43:27;16.80;99.90
20081;DHT22;10200;49.232;9.222;2022-09-09T03:45:53;16.70;99.90
20081;DHT22;10200;49.232;9.222;2022-09-09T03:48:22;16.70;99.90
20081;DHT22;10200;49.232;9.222;2022-09-09T03:50:53;16.70;99.90
20081;DHT22;10200;49.232;9.222;2022-09-09T03:53:21;16.70;99.90
20081;DHT22;10200;49.232;9.222;2022-09-09T03:55:52;16.70;99.90
20081;DHT22;10200;49.232;9.222;2022-09-09T03:58:21;16.60;99.90
20081;DHT22;10200;49.232;9.222;2022-09-09T04:03:29;16.60;99.90
20081;DHT22;10200;49.232;9.222;2022-09-09T04:05:57;16.60;99.90
20081;DHT22;10200;49.232;9.222;2022-09-09T04:08:23;16.50;99.90
20081;DHT22;10200;49.232;9.222;2022-09-09T04:10:53;16.50;99.90
20081;DHT22;10200;49.232;9.222;2022-09-09T04:13:21;16.60;99.90
20081;DHT22;10200;49.232;9.222;2022-09-09T04:15:55;16.60;99.90
20081;DHT22;10200;49.232;9.222;2022-09-09T04:18:21;16.70;99.90
20081;DHT22;10200;49.232;9.222;2022-09-09T04:20:51;16.70;99.90
20081;DHT22;10200;49.232;9.222;2022-09-09T04:23:18;16.80;99.90
20081;DHT22;10200;49.232;9.222;2022-09-09T04:25:48;16.80;99.90
20081;DHT22;10200;49.232;9.222;2022-09-09T04:28:15;16.70;99.90
20081;DHT22;10200;49.232;9.222;2022-09-09T04:30:42;16.60;99.90
20081;DHT22;10200;49.232;9.222;2022-09-09T04:33:08;16.70;99.90
20081;DHT22;10200;49.232;9.222;2022-09-09T04:35:35;16.60;99.90
20081;DHT22;10200;49.232;9.222;2022-09-09T04:38:01;16.70;99.90
20081;DHT22;10200;49.232;9.222;2022-09-09T04:40:28;16.70;99.90
20081;DHT22;10200;49.232;9.222;2022-09-09T04:42:55;16.70;99.90
20081;DHT22;10200;49.232;9.222;2022-09-09T04:45:20;16.60;99.90
20081;DHT22;10200;49.232;9.222;2022-09-09T04:47:46;16.60;99.90
20081;DHT22;10200;49.232;9.222;2022-09-09T04:50:12;16.60;99.90
20081;DHT22;10200;49.232;9.222;2022-09-09T04:52:37;16.60;99.90
20081;DHT22;10200;49.232;9.222;2022-09-09T04:55:03;16.60;99.90
20081;DHT22;10200;49.232;9.222;2022-09-09T04:57:29;16.60;99.90
20081;DHT22;10200;49.232;9.222;2022-09-09T04:59:58;16.70;99.90
20081;DHT22;10200;49.232;9.222;2022-09-09T05:02:25;16.70;99.90
20081;DHT22;10200;49.232;9.222;2022-09-09T05:04:51;16.70;99.90
20081;DHT22;10200;49.232;9.222;2022-09-09T05:07:17;16.70;99.90
20081;DHT22;10200;49.232;9.222;2022-09-09T05:09:42;16.80;99.90
20081;DHT22;10200;49.232;9.222;2022-09-09T05:12:08;16.70;99.90
20081;DHT22;10200;49.232;9.222;2022-09-09T05:14:33;16.70;99.90
20081;DHT22;10200;49.232;9.222;2022-09-09T05:17:01;16.70;99.90
20081;DHT22;10200;49.232;9.222;2022-09-09T05:19:27;16.70;99.90
20081;DHT22;10200;49.232;9.222;2022-09-09T05:21:52;16.70;99.90
20081;DHT22;10200;49.232;9.222;2022-09-09T05:24:18;16.70;99.90
20081;DHT22;10200;49.232;9.222;2022-09-09T05:26:44;16.70;99.90
20081;DHT22;10200;49.232;9.222;2022-09-09T05:29:09;16.70;99.90
20081;DHT22;10200;49.232;9.222;2022-09-09T05:31:35;16.70;99.90
20081;DHT22;10200;49.232;9.222;2022-09-09T05:34:01;16.70;99.90
20081;DHT22;10200;49.232;9.222;2022-09-09T05:36:26;16.70;99.90
20081;DHT22;10200;49.232;9.222;2022-09-09T05:38:52;16.60;99.90
20081;DHT22;10200;49.232;9.222;2022-09-09T05:41:19;16.70;99.90
20081;DHT22;10200;49.232;9.222;2022-09-09T05:43:45;16.60;99.90
20081;DHT22;10200;49.232;9.222;2022-09-09T05:46:14;16.70;99.90
20081;DHT22;10200;49.232;9.222;2022-09-09T05:48:42;16.70;99.90
20081;DHT22;10200;49.232;9.222;2022-09-09T05:51:12;16.70;99.90
20081;DHT22;10200;49.232;9.222;2022-09-09T05:53:38;16.80;99.90
20081;DHT22;10200;49.232;9.222;2022-09-09T05:58:38;16.80;99.90
20081;DHT22;10200;49.232;9.222;2022-09-09T06:01:09;16.90;99.90
20081;DHT22;10200;49.232;9.222;2022-09-09T06:03:40;17.00;99.90
20081;DHT22;10200;49.232;9.222;2022-09-09T06:06:07;17.10;99.90
20081;DHT22;10200;49.232;9.222;2022-09-09T06:08:35;17.40;99.90
20081;DHT22;10200;49.232;9.222;2022-09-09T06:11:07;18.30;99.90
20081;DHT22;10200;49.232;9.222;2022-09-09T06:13:32;19.30;99.90
20081;DHT22;10200;49.232;9.222;2022-09-09T06:15:59;19.80;99.90
20081;DHT22;10200;49.232;9.222;2022-09-09T06:18:25;19.70;99.90
20081;DHT22;10200;49.232;9.222;2022-09-09T06:20:59;19.50;99.90
20081;DHT22;10200;49.232;9.222;2022-09-09T06:23:27;19.30;99.90
20081;DHT22;10200;49.232;9.222;2022-09-09T06:28:33;19.00;99.90
20081;DHT22;10200;49.232;9.222;2022-09-09T06:31:01;18.90;99.90
20081;DHT22;10200;49.232;9.222;2022-09-09T06:33:30;18.80;99.90
20081;DHT22;10200;49.232;9.222;2022-09-09T06:35:55;18.70;99.90
20081;DHT22;10200;49.232;9.222;2022-09-09T06:38:22;18.60;99.90
20081;DHT22;10200;49.232;9.222;2022-09-09T06:40:53;18.60;99.90
20081;DHT22;10200;49.232;9.222;2022-09-09T06:43:20;18.50;99.90
20081;DHT22;10200;49.232;9.222;2022-09-09T06:45:56;18.70;99.90
20081;DHT22;10200;49.232;9.222;2022-09-09T06:48:22;18.70;99.90
20081;DHT22;10200;49.232;9.222;2022-09-09T06:50:48;18.80;99.90
20081;DHT22;10200;49.232;9.222;2022-09-09T06:53:18;18.80;99.90
20081;DHT22;10200;49.232;9.222;2022-09-09T06:55:45;18.80;99.90
20081;DHT22;10200;49.232;9.222;2022-09-09T06:58:10;18.80;99.90
20081;DHT22;10200;49.232;9.222;2022-09-09T07:00:36;18.80;99.90
20081;DHT22;10200;49.232;9.222;2022-09-09T07:03:05;18.90;99.90
20081;DHT22;10200;49.232;9.222;2022-09-09T07:05:31;19.00;99.90
20081;DHT22;10200;49.232;9.222;2022-09-09T07:07:57;19.10;99.90
20081;DHT22;10200;49.232;9.222;2022-09-09T07:10:24;19.40;99.90
20081;DHT22;10200;49.232;9.222;2022-09-09T07:12:53;19.50;99.90
20081;DHT22;10200;49.232;9.222;2022-09-09T07:15:19;19.90;99.90
20081;DHT22;10200;49.232;9.222;2022-09-09T07:17:45;20.50;99.90
20081;DHT22;10200;49.232;9.222;2022-09-09T07:20:11;21.60;96.30
20081;DHT22;10200;49.232;9.222;2022-09-09T07:22:37;21.60;89.10
20081;DHT22;10200;49.232;9.222;2022-09-09T07:25:03;21.40;86.70
20081;DHT22;10200;49.232;9.222;2022-09-09T07:27:28;21.10;85.50
20081;DHT22;10200;49.232;9.222;2022-09-09T07:29:55;20.90;85.80
20081;DHT22;10200;49.232;9.222;2022-09-09T07:32:20;20.80;86.30
20081;DHT22;10200;49.232;9.222;2022-09-09T07:34:46;20.70;86.60
20081;DHT22;10200;49.232;9.222;2022-09-09T07:37:12;20.70;88.20
20081;DHT22;10200;49.232;9.222;2022-09-09T07:39:39;20.60;86.80
20081;DHT22;10200;49.232;9.222;2022-09-09T07:42:05;20.60;87.50
20081;DHT22;10200;49.232;9.222;2022-09-09T07:44:30;20.60;87.60
20081;DHT22;10200;49.232;9.222;2022-09-09T07:47:00;20.60;87.80
20081;DHT22;10200;49.232;9.222;2022-09-09T07:49:26;20.70;87.90
20081;DHT22;10200;49.232;9.222;2022-09-09T07:51:52;20.90;87.20
20081;DHT22;10200;49.232;9.222;2022-09-09T07:54:19;21.00;85.80
20081;DHT22;10200;49.232;9.222;2022-09-09T07:56:49;21.10;84.40
20081;DHT22;10200;49.232;9.222;2022-09-09T07:59:15;21.10;84.30
20081;DHT22;10200;49.232;9.222;2022-09-09T08:01:51;21.10;83.20
20081;DHT22;10200;49.232;9.222;2022-09-09T08:04:21;21.10;83.90
20081;DHT22;10200;49.232;9.222;2022-09-09T08:06:49;21.20;84.70
20081;DHT22;10200;49.232;9.222;2022-09-09T08:09:15;21.70;87.10
20081;DHT22;10200;49.232;9.222;2022-09-09T08:11:41;22.70;83.30
20081;DHT22;10200;49.232;9.222;2022-09-09T08:14:08;22.90;77.40
20081;DHT22;10200;49.232;9.222;2022-09-09T08:16:37;22.80;74.80
20081;DHT22;10200;49.232;9.222;2022-09-09T08:19:03;22.80;75.10
20081;DHT22;10200;49.232;9.222;2022-09-09T08:21:31;23.10;79.20
20081;DHT22;10200;49.232;9.222;2022-09-09T08:24:00;24.10;77.60
20081;DHT22;10200;49.232;9.222;2022-09-09T08:26:36;24.30;68.80
20081;DHT22;10200;49.232;9.222;2022-09-09T08:29:03;24.50;70.40
20081;DHT22;10200;49.232;9.222;2022-09-09T08:31:33;25.30;69.30
20081;DHT22;10200;49.232;9.222;2022-09-09T08:34:01;25.50;64.60
20081;DHT22;10200;49.232;9.222;2022-09-09T08:36:30;25.10;63.90
20081;DHT22;10200;49.232;9.222;2022-09-09T08:38:57;25.20;65.90
20081;DHT22;10200;49.232;9.222;2022-09-09T08:52:44;24.40;64.50
20081;DHT22;10200;49.232;9.222;2022-09-09T08:55:24;24.80;65.40
20081;DHT22;10200;49.232;9.222;2022-09-09T08:57:53;25.50;66.10
20081;DHT22;10200;49.232;9.222;2022-09-09T09:00:20;26.20;62.90
20081;DHT22;10200;49.232;9.222;2022-09-09T09:05:25;26.60;57.90
20081;DHT22;10200;49.232;9.222;2022-09-09T09:10:48;26.60;55.70
20081;DHT22;10200;49.232;9.222;2022-09-09T09:13:26;26.10;57.80
20081;DHT22;10200;49.232;9.222;2022-09-09T09:16:00;26.50;59.10
20081;DHT22;10200;49.232;9.222;2022-09-09T09:18:26;26.60;58.20
20081;DHT22;10200;49.232;9.222;2022-09-09T09:21:04;27.10;58.40
20081;DHT22;10200;49.232;9.222;2022-09-09T09:24:07;27.00;55.80
20081;DHT22;10200;49.232;9.222;2022-09-09T09:26:37;27.10;55.40
20081;DHT22;10200;49.232;9.222;2022-09-09T09:29:32;26.90;53.70
20081;DHT22;10200;49.232;9.222;2022-09-09T09:32:01;26.40;54.10
20081;DHT22;10200;49.232;9.222;2022-09-09T09:34:27;26.30;56.30
20081;DHT22;10200;49.232;9.222;2022-09-09T09:36:57;26.40;56.10
20081;DHT22;10200;49.232;9.222;2022-09-09T09:39:31;26.50;54.20
20081;DHT22;10200;49.232;9.222;2022-09-09T09:42:16;26.40;54.80
20081;DHT22;10200;49.232;9.222;2022-09-09T09:44:43;26.10;55.80
20081;DHT22;10200;49.232;9.222;2022-09-09T09:47:22;25.70;55.30
20081;DHT22;10200;49.232;9.222;2022-09-09T09:49:56;25.30;56.10
20081;DHT22;10200;49.232;9.222;2022-09-09T09:52:29;24.70;55.20
20081;DHT22;10200;49.232;9.222;2022-09-09T09:54:56;24.20;54.80
20081;DHT22;10200;49.232;9.222;2022-09-09T09:57:29;23.80;56.20
20081;DHT22;10200;49.232;9.222;2022-09-09T10:00:12;23.80;59.00
20081;DHT22;10200;49.232;9.222;2022-09-09T10:02:40;24.10;58.10
20081;DHT22;10200;49.232;9.222;2022-09-09T10:05:27;24.20;59.10
20081;DHT22;10200;49.232;9.222;2022-09-09T10:08:12;24.40;57.40
20081;DHT22;10200;49.232;9.222;2022-09-09T10:14:00;24.50;56.20
20081;DHT22;10200;49.232;9.222;2022-09-09T10:19:30;25.30;56.90
20081;DHT22;10200;49.232;9.222;2022-09-09T10:22:27;25.50;56.60
20081;DHT22;10200;49.232;9.222;2022-09-09T10:33:32;25.70;55.70
20081;DHT22;10200;49.232;9.222;2022-09-09T10:36:07;25.60;55.50
20081;DHT22;10200;49.232;9.222;2022-09-09T10:38:45;25.70;54.50
20081;DHT22;10200;49.232;9.222;2022-09-09T10:47:13;25.50;55.40
20081;DHT22;10200;49.232;9.222;2022-09-09T10:52:44;25.50;54.90
20081;DHT22;10200;49.232;9.222;2022-09-09T10:55:20;25.40;54.40
20081;DHT22;10200;49.232;9.222;2022-09-09T10:57:51;25.30;54.50
20081;DHT22;10200;49.232;9.222;2022-09-09T11:03:04;25.40;53.50
20081;DHT22;10200;49.232;9.222;2022-09-09T11:05:41;25.60;54.30
20081;DHT22;10200;49.232;9.222;2022-09-09T11:08:14;25.70;52.60
20081;DHT22;10200;49.232;9.222;2022-09-09T11:15:50;25.80;51.30
20081;DHT22;10200;49.232;9.222;2022-09-09T11:18:20;25.70;51.60
20081;DHT22;10200;49.232;9.222;2022-09-09T11:20:51;25.70;52.10
20081;DHT22;10200;49.232;9.222;2022-09-09T11:23:24;25.70;52.20
20081;DHT22;10200;49.232;9.222;2022-09-09T11:25:56;25.60;52.50
20081;DHT22;10200;49.232;9.222;2022-09-09T11:34:36;25.10;53.30
20081;DHT22;10200;49.232;9.222;2022-09-09T11:40:26;24.70;54.10
20081;DHT22;10200;49.232;9.222;2022-09-09T11:42:46;24.60;54.70
20081;DHT22;10200;49.232;9.222;2022-09-09T11:45:24;24.60;54.90
20081;DHT22;10200;49.232;9.222;2022-09-09T11:47:58;24.60;55.30
20081;DHT22;10200;49.232;9.222;2022-09-09T11:52:50;24.60;55.50
20081;DHT22;10200;49.232;9.222;2022-09-09T11:55:31;24.70;56.60
20081;DHT22;10200;49.232;9.222;2022-09-09T11:58:06;25.00;55.40
20081;DHT22;10200;49.232;9.222;2022-09-09T12:00:44;25.10;55.20
20081;DHT22;10200;49.232;9.222;2022-09-09T12:06:19;25.30;54.50
20081;DHT22;10200;49.232;9.222;2022-09-09T12:09:27;25.40;54.70
20081;DHT22;10200;49.232;9.222;2022-09-09T12:12:25;25.70;54.40
20081;DHT22;10200;49.232;9.222;2022-09-09T12:15:23;25.80;54.20
20081;DHT22;10200;49.232;9.222;2022-09-09T12:17:52;25.90;54.10
20081;DHT22;10200;49.232;9.222;2022-09-09T12:20:36;25.90;50.90
20081;DHT22;10200;49.232;9.222;2022-09-09T12:23:29;25.60;48.50
20081;DHT22;10200;49.232;9.222;2022-09-09T12:31:04;25.70;50.50
20081;DHT22;10200;49.232;9.222;2022-09-09T12:33:38;25.70;49.20
20081;DHT22;10200;49.232;9.222;2022-09-09T12:36:21;25.70;49.50
20081;DHT22;10200;49.232;9.222;2022-09-09T12:38:48;25.80;49.70
20081;DHT22;10200;49.232;9.222;2022-09-09T12:41:22;25.70;49.10
20081;DHT22;10200;49.232;9.222;2022-09-09T12:43:48;25.60;48.30
20081;DHT22;10200;49.232;9.222;2022-09-09T12:46:32;25.40;49.10
20081;DHT22;10200;49.232;9.222;2022-09-09T12:48:58;25.30;49.80
20081;DHT22;10200;49.232;9.222;2022-09-09T12:51:30;25.10;49.70
20081;DHT22;10200;49.232;9.222;2022-09-09T12:53:56;25.00;50.00
20081;DHT22;10200;49.232;9.222;2022-09-09T12:56:32;24.90;50.10
20081;DHT22;10200;49.232;9.222;2022-09-09T12:58:58;24.90;50.60
20081;DHT22;10200;49.232;9.222;2022-09-09T13:01:25;25.00;51.00
20081;DHT22;10200;49.232;9.222;2022-09-09T13:03:51;25.10;51.10
20081;DHT22;10200;49.232;9.222;2022-09-09T13:06:29;25.20;50.90
20081;DHT22;10200;49.232;9.222;2022-09-09T13:08:57;25.30;50.10
20081;DHT22;10200;49.232;9.222;2022-09-09T13:13:59;25.40;49.50
20081;DHT22;10200;49.232;9.222;2022-09-09T13:16:33;25.50;49.00
20081;DHT22;10200;49.232;9.222;2022-09-09T13:19:02;25.50;49.00
20081;DHT22;10200;49.232;9.222;2022-09-09T13:21:34;25.70;49.00
20081;DHT22;10200;49.232;9.222;2022-09-09T13:24:00;25.70;49.40
20081;DHT22;10200;49.232;9.222;2022-09-09T13:26:29;25.80;48.90
20081;DHT22;10200;49.232;9.222;2022-09-09T13:29:06;25.70;49.20
20081;DHT22;10200;49.232;9.222;2022-09-09T13:31:36;25.50;49.40
20081;DHT22;10200;49.232;9.222;2022-09-09T13:34:22;25.50;50.20
20081;DHT22;10200;49.232;9.222;2022-09-09T13:36:56;25.40;50.20
20081;DHT22;10200;49.232;9.222;2022-09-09T13:39:24;25.60;50.30
20081;DHT22;10200;49.232;9.222;2022-09-09T13:41:49;25.70;50.20
20081;DHT22;10200;49.232;9.222;2022-09-09T13:44:29;25.70;49.80
20081;DHT22;10200;49.232;9.222;2022-09-09T13:47:04;25.60;50.00
20081;DHT22;10200;49.232;9.222;2022-09-09T13:49:31;25.50;50.10
20081;DHT22;10200;49.232;9.222;2022-09-09T13:52:14;25.50;49.80
20081;DHT22;10200;49.232;9.222;2022-09-09T13:54:42;25.30;50.40
20081;DHT22;10200;49.232;9.222;2022-09-09T13:57:24;25.20;51.30
20081;DHT22;10200;49.232;9.222;2022-09-09T13:59:51;25.10;51.70
20081;DHT22;10200;49.232;9.222;2022-09-09T14:02:17;25.00;52.10
20081;DHT22;10200;49.232;9.222;2022-09-09T14:04:44;24.90;52.70
20081;DHT22;10200;49.232;9.222;2022-09-09T14:07:14;24.80;53.00
20081;DHT22;10200;49.232;9.222;2022-09-09T14:09:41;24.80;53.60
20081;DHT22;10200;49.232;9.222;2022-09-09T14:12:11;24.70;53.40
20081;DHT22;10200;49.232;9.222;2022-09-09T14:14:37;24.60;53.60
20081;DHT22;10200;49.232;9.222;2022-09-09T14:17:03;24.50;53.80
20081;DHT22;10200;49.232;9.222;2022-09-09T14:19:29;24.30;55.10
20081;DHT22;10200;49.232;9.222;2022-09-09T14:21:56;24.20;58.30
20081;DHT22;10200;49.232;9.222;2022-09-09T14:24:22;24.30;61.20
20081;DHT22;10200;49.232;9.222;2022-09-09T14:26:48;24.30;62.70
20081;DHT22;10200;49.232;9.222;2022-09-09T14:29:13;24.30;62.40
20081;DHT22;10200;49.232;9.222;2022-09-09T14:31:39;24.30;62.80
20081;DHT22;10200;49.232;9.222;2022-09-09T14:34:05;24.20;61.10
20081;DHT22;10200;49.232;9.222;2022-09-09T14:36:31;24.20;62.20
20081;DHT22;10200;49.232;9.222;2022-09-09T14:38:57;24.30;60.80
20081;DHT22;10200;49.232;9.222;2022-09-09T14:41:23;24.20;60.00
20081;DHT22;10200;49.232;9.222;2022-09-09T14:43:49;24.10;59.90
20081;DHT22;10200;49.232;9.222;2022-09-09T14:46:17;24.00;59.70
20081;DHT22;10200;49.232;9.222;2022-09-09T14:48:43;23.80;59.80
20081;DHT22;10200;49.232;9.222;2022-09-09T14:51:13;23.60;60.40
20081;DHT22;10200;49.232;9.222;2022-09-09T14:53:41;23.50;61.50
20081;DHT22;10200;49.232;9.222;2022-09-09T14:56:15;23.30;61.00
20081;DHT22;10200;49.232;9.222;2022-09-09T14:58:41;23.20;61.00
20081;DHT22;10200;49.232;9.222;2022-09-09T15:01:11;23.10;61.30
20081;DHT22;10200;49.232;9.222;2022-09-09T15:03:38;22.90;61.40
20081;DHT22;10200;49.232;9.222;2022-09-09T15:06:09;22.80;61.70
20081;DHT22;10200;49.232;9.222;2022-09-09T15:08:37;22.70;62.00
20081;DHT22;10200;49.232;9.222;2022-09-09T15:11:04;22.70;62.80
20081;DHT22;10200;49.232;9.222;2022-09-09T15:13:30;22.60;63.00
20081;DHT22;10200;49.232;9.222;2022-09-09T15:15:56;22.70;81.20
20081;DHT22;10200;49.232;9.222;2022-09-09T15:18:23;22.40;62.80
20081;DHT22;10200;49.232;9.222;2022-09-09T15:20:48;22.30;62.80
20081;DHT22;10200;49.232;9.222;2022-09-09T15:23:14;22.30;63.10
20081;DHT22;10200;49.232;9.222;2022-09-09T15:25:55;22.30;63.70
20081;DHT22;10200;49.232;9.222;2022-09-09T15:28:22;22.40;63.70
20081;DHT22;10200;49.232;9.222;2022-09-09T15:30:49;22.30;63.20
20081;DHT22;10200;49.232;9.222;2022-09-09T15:33:15;22.30;63.40
20081;DHT22;10200;49.232;9.222;2022-09-09T15:35:40;22.30;63.20
20081;DHT22;10200;49.232;9.222;2022-09-09T15:38:06;22.30;63.10
20081;DHT22;10200;49.232;9.222;2022-09-09T15:40:31;22.30;63.60
20081;DHT22;10200;49.232;9.222;2022-09-09T15:43:00;22.30;63.90
20081;DHT22;10200;49.232;9.222;2022-09-09T15:45:26;22.30;63.50
20081;DHT22;10200;49.232;9.222;2022-09-09T15:47:52;22.30;63.70
20081;DHT22;10200;49.232;9.222;2022-09-09T15:50:17;22.30;63.70
20081;DHT22;10200;49.232;9.222;2022-09-09T15:52:43;22.20;64.00
20081;DHT22;10200;49.232;9.222;2022-09-09T15:55:09;22.20;64.00
20081;DHT22;10200;49.232;9.222;2022-09-09T15:57:35;22.10;64.70
20081;DHT22;10200;49.232;9.222;2022-09-09T16:00:02;22.10;65.10
20081;DHT22;10200;49.232;9.222;2022-09-09T16:02:28;22.10;65.60
20081;DHT22;10200;49.232;9.222;2022-09-09T16:04:56;22.10;66.10
20081;DHT22;10200;49.232;9.222;2022-09-09T16:07:23;22.10;66.40
20081;DHT22;10200;49.232;9.222;2022-09-09T16:09:48;22.00;66.80
20081;DHT22;10200;49.232;9.222;2022-09-09T16:12:16;22.10;67.30
20081;DHT22;10200;49.232;9.222;2022-09-09T16:14:42;22.00;68.00
20081;DHT22;10200;49.232;9.222;2022-09-09T16:17:08;22.00;69.20
20081;DHT22;10200;49.232;9.222;2022-09-09T16:19:33;22.00;70.50
20081;DHT22;10200;49.232;9.222;2022-09-09T16:22:00;22.00;72.40
20081;DHT22;10200;49.232;9.222;2022-09-09T16:24:25;22.00;73.60
20081;DHT22;10200;49.232;9.222;2022-09-09T16:26:53;22.00;75.10
20081;DHT22;10200;49.232;9.222;2022-09-09T16:29:20;21.80;75.40
20081;DHT22;10200;49.232;9.222;2022-09-09T16:31:47;21.80;79.40
20081;DHT22;10200;49.232;9.222;2022-09-09T16:34:14;21.60;77.00
20081;DHT22;10200;49.232;9.222;2022-09-09T16:39:15;21.40;77.00
20081;DHT22;10200;49.232;9.222;2022-09-09T16:41:42;21.30;77.60
20081;DHT22;10200;49.232;9.222;2022-09-09T16:44:10;21.20;78.90
20081;DHT22;10200;49.232;9.222;2022-09-09T16:46:38;21.30;79.90
20081;DHT22;10200;49.232;9.222;2022-09-09T16:49:06;21.10;79.90
20081;DHT22;10200;49.232;9.222;2022-09-09T16:51:38;21.00;79.50
20081;DHT22;10200;49.232;9.222;2022-09-09T16:54:05;20.90;80.20
20081;DHT22;10200;49.232;9.222;2022-09-09T16:56:36;20.90;81.40
20081;DHT22;10200;49.232;9.222;2022-09-09T16:59:10;20.90;81.50
20081;DHT22;10200;49.232;9.222;2022-09-09T17:01:38;20.90;82.00
20081;DHT22;10200;49.232;9.222;2022-09-09T17:04:11;20.80;82.60
20081;DHT22;10200;49.232;9.222;2022-09-09T17:06:38;20.80;82.10
20081;DHT22;10200;49.232;9.222;2022-09-09T17:09:11;20.70;82.30
20081;DHT22;10200;49.232;9.222;2022-09-09T17:11:38;20.50;81.40
20081;DHT22;10200;49.232;9.222;2022-09-09T17:14:05;20.40;81.60
20081;DHT22;10200;49.232;9.222;2022-09-09T17:16:33;20.30;80.80
20081;DHT22;10200;49.232;9.222;2022-09-09T17:19:03;20.20;81.20
20081;DHT22;10200;49.232;9.222;2022-09-09T17:21:30;20.20;81.30
20081;DHT22;10200;49.232;9.222;2022-09-09T17:23:56;20.10;81.10
20081;DHT22;10200;49.232;9.222;2022-09-09T17:26:25;20.00;81.10
20081;DHT22;10200;49.232;9.222;2022-09-09T17:28:52;20.00;82.40
20081;DHT22;10200;49.232;9.222;2022-09-09T17:31:18;20.00;83.60
20081;DHT22;10200;49.232;9.222;2022-09-09T17:33:47;20.00;82.40
20081;DHT22;10200;49.232;9.222;2022-09-09T17:36:17;20.00;82.90
20081;DHT22;10200;49.232;9.222;2022-09-09T17:38:44;19.90;83.00
20081;DHT22;10200;49.232;9.222;2022-09-09T17:41:11;19.90;82.80
20081;DHT22;10200;49.232;9.222;2022-09-09T17:43:37;19.80;83.50
20081;DHT22;10200;49.232;9.222;2022-09-09T17:46:10;19.70;83.30
20081;DHT22;10200;49.232;9.222;2022-09-09T17:48:36;19.70;84.80
20081;DHT22;10200;49.232;9.222;2022-09-09T17:51:06;19.70;85.10
20081;DHT22;10200;49.232;9.222;2022-09-09T17:53:42;19.70;84.30
20081;DHT22;10200;49.232;9.222;2022-09-09T17:56:09;19.60;84.40